createdAt,value
2019-05-16T00:00:32.087Z,1012.34
2019-05-16T00:03:32.072Z,1012.27
2019-05-16T00:06:32.054Z,1012.27
2019-05-16T00:09:31.988Z,1012.29
2019-05-16T00:12:31.978Z,1012.23
2019-05-16T00:15:31.923Z,1012.23
2019-05-16T00:18:31.900Z,1012.08
2019-05-16T00:21:31.848Z,1012.18
2019-05-16T00:24:31.851Z,1012.09
2019-05-16T00:27:31.820Z,1012.16
2019-05-16T00:30:31.756Z,1012.13
2019-05-16T00:33:31.769Z,1012.04
2019-05-16T00:36:31.686Z,1012.12
2019-05-16T00:39:31.688Z,1012.06
2019-05-16T00:42:31.623Z,1011.99
2019-05-16T00:45:31.607Z,1012.00
2019-05-16T00:48:31.586Z,1011.92
2019-05-16T00:51:31.523Z,1011.93
2019-05-16T00:54:31.508Z,1011.88
2019-05-16T00:57:31.459Z,1011.76
2019-05-16T01:00:31.437Z,1011.78
2019-05-16T01:03:31.387Z,1011.77
2019-05-16T01:06:31.381Z,1011.77
2019-05-16T01:09:31.355Z,1011.77
2019-05-16T01:12:31.290Z,1011.68
2019-05-16T01:15:31.281Z,1011.75
2019-05-16T01:18:31.221Z,1011.69
2019-05-16T01:21:31.209Z,1011.63
2019-05-16T01:24:31.162Z,1011.57
2019-05-16T01:27:31.139Z,1011.56
2019-05-16T01:30:31.123Z,1011.49
2019-05-16T01:33:31.053Z,1011.54
2019-05-16T01:36:36.772Z,1011.47
2019-05-16T01:39:31.995Z,1011.50
2019-05-16T01:42:30.973Z,1011.40
2019-05-16T01:45:30.924Z,1011.37
2019-05-16T01:48:30.912Z,1011.42
2019-05-16T01:51:30.870Z,1011.30
2019-05-16T01:54:30.845Z,1011.29
2019-05-16T01:57:30.809Z,1011.32
2019-05-16T02:00:37.151Z,1011.29
2019-05-16T02:03:31.751Z,1011.29
2019-05-16T02:06:30.698Z,1011.29
2019-05-16T02:09:30.680Z,1011.21
2019-05-16T02:12:30.627Z,1011.35
2019-05-16T02:15:30.613Z,1011.28
2019-05-16T02:18:30.561Z,1011.25
2019-05-16T02:21:30.549Z,1011.26
2019-05-16T02:24:30.516Z,1011.25
2019-05-16T02:27:30.479Z,1011.26
2019-05-16T02:30:31.531Z,1011.26
2019-05-16T02:33:31.679Z,1011.21
2019-05-16T02:36:31.377Z,1011.18
2019-05-16T02:39:30.793Z,1011.18
2019-05-16T02:42:31.218Z,1011.13
2019-05-16T02:45:32.488Z,1011.16
2019-05-16T02:48:31.808Z,1011.12
2019-05-16T02:51:31.666Z,1011.15
2019-05-16T02:54:31.571Z,1011.16
2019-05-16T02:57:31.724Z,1011.12
2019-05-16T03:00:30.921Z,1011.12
2019-05-16T03:03:31.651Z,1011.11
2019-05-16T03:06:32.120Z,1011.07
2019-05-16T03:09:30.548Z,1011.02
2019-05-16T03:12:31.023Z,1011.03
2019-05-16T03:15:31.006Z,1011.08
2019-05-16T03:18:31.019Z,1011.00
2019-05-16T03:21:30.817Z,1010.93
2019-05-16T03:24:30.975Z,1010.96
2019-05-16T03:27:30.576Z,1010.88
2019-05-16T03:30:35.054Z,1010.95
2019-05-16T03:33:35.197Z,1010.88
2019-05-16T03:36:34.576Z,1010.83
2019-05-16T03:39:31.355Z,1010.81
2019-05-16T03:42:31.094Z,1010.79
2019-05-16T03:45:31.920Z,1010.79
2019-05-16T03:48:31.506Z,1010.76
2019-05-16T03:51:30.909Z,1010.71
2019-05-16T03:54:31.381Z,1010.65
2019-05-16T03:57:30.712Z,1010.64
2019-05-16T04:00:31.638Z,1010.59
2019-05-16T04:03:32.974Z,1010.58
2019-05-16T04:06:31.154Z,1010.59
2019-05-16T04:09:31.500Z,1010.63
2019-05-16T04:12:30.867Z,1010.58
2019-05-16T04:15:31.124Z,1010.58
2019-05-16T04:18:31.869Z,1010.61
2019-05-16T04:21:32.249Z,1010.58
2019-05-16T04:24:31.681Z,1010.56
2019-05-16T04:27:30.934Z,1010.54
2019-05-16T04:30:31.274Z,1010.51
2019-05-16T04:33:30.942Z,1010.51
2019-05-16T04:36:29.062Z,1010.62
2019-05-16T04:39:31.922Z,1010.62
2019-05-16T04:42:31.116Z,1010.65
2019-05-16T04:45:31.694Z,1010.66
2019-05-16T04:48:31.017Z,1010.62
2019-05-16T04:51:30.681Z,1010.64
2019-05-16T04:54:30.788Z,1010.63
2019-05-16T04:57:31.322Z,1010.65
2019-05-16T05:00:31.886Z,1010.66
2019-05-16T05:03:31.562Z,1010.61
2019-05-16T05:06:31.268Z,1010.59
2019-05-16T05:09:31.505Z,1010.60
2019-05-16T05:12:31.340Z,1010.61
2019-05-16T05:15:30.606Z,1010.55
2019-05-16T05:18:30.294Z,1010.54
2019-05-16T05:21:31.206Z,1010.59
2019-05-16T05:24:30.246Z,1010.48
2019-05-16T05:27:30.264Z,1010.54
2019-05-16T05:30:30.325Z,1010.52
2019-05-16T05:33:30.199Z,1010.48
2019-05-16T05:36:30.074Z,1010.43
2019-05-16T05:39:30.322Z,1010.41
2019-05-16T05:42:30.573Z,1010.43
2019-05-16T05:45:30.503Z,1010.50
2019-05-16T05:48:30.704Z,1010.46
2019-05-16T05:51:30.094Z,1010.52
2019-05-16T05:54:30.672Z,1010.44
2019-05-16T05:57:30.053Z,1010.52
2019-05-16T06:00:30.335Z,1010.48
2019-05-16T06:03:32.375Z,1010.53
2019-05-16T06:06:30.348Z,1010.53
2019-05-16T06:09:30.107Z,1010.53
2019-05-16T06:12:30.317Z,1010.58
2019-05-16T06:15:27.961Z,1010.55
2019-05-16T06:18:30.290Z,1010.52
2019-05-16T06:21:33.110Z,1010.41
2019-05-16T06:24:30.518Z,1010.42
2019-05-16T06:27:30.159Z,1010.33
2019-05-16T06:30:30.214Z,1010.33
2019-05-16T06:33:30.337Z,1010.31
2019-05-16T06:36:27.747Z,1010.32
2019-05-16T06:39:39.195Z,1010.28
2019-05-16T06:42:29.928Z,1010.32
2019-05-16T06:45:27.637Z,1010.19
2019-05-16T06:48:30.167Z,1010.21
2019-05-16T06:51:27.566Z,1010.17
2019-05-16T06:54:29.734Z,1010.22
2019-05-16T06:57:30.015Z,1010.23
2019-05-16T07:00:29.889Z,1010.15
2019-05-16T07:03:27.450Z,1010.09
2019-05-16T07:06:48.406Z,1010.07
2019-05-16T07:09:30.116Z,1010.06
2019-05-16T07:12:27.356Z,1010.13
2019-05-16T07:15:27.313Z,1010.10
2019-05-16T07:18:27.287Z,1010.20
2019-05-16T07:21:27.252Z,1010.15
2019-05-16T07:24:27.231Z,1010.16
2019-05-16T07:27:27.221Z,1010.09
2019-05-16T07:30:27.143Z,1010.20
2019-05-16T07:33:27.129Z,1010.09
2019-05-16T07:36:27.091Z,1010.04
2019-05-16T07:39:27.066Z,1009.91
2019-05-16T07:42:27.053Z,1009.94
2019-05-16T07:45:27.034Z,1009.96
2019-05-16T07:48:26.964Z,1009.89
2019-05-16T07:51:26.956Z,1009.87
2019-05-16T07:54:26.883Z,1009.84
2019-05-16T07:57:26.896Z,1009.85
2019-05-16T08:00:45.753Z,1009.85
2019-05-16T08:03:30.184Z,1009.89
2019-05-16T08:06:26.753Z,1009.82
2019-05-16T08:09:26.751Z,1009.77
2019-05-16T08:12:27.221Z,1009.77
2019-05-16T08:15:26.654Z,1009.64
2019-05-16T08:18:26.648Z,1009.66
2019-05-16T08:21:27.729Z,1009.64
2019-05-16T08:24:26.594Z,1009.60
2019-05-16T08:27:26.526Z,1009.62
2019-05-16T08:30:26.516Z,1009.59
2019-05-16T08:33:26.490Z,1009.53
2019-05-16T08:36:26.432Z,1009.53
2019-05-16T08:39:26.418Z,1009.43
2019-05-16T08:42:26.425Z,1009.45
2019-05-16T08:45:26.400Z,1009.40
2019-05-16T08:48:26.321Z,1009.33
2019-05-16T08:51:26.300Z,1009.29
2019-05-16T08:54:26.257Z,1009.38
2019-05-16T08:57:27.758Z,1009.36
2019-05-16T09:00:27.230Z,1009.34
2019-05-16T09:03:26.152Z,1009.35
2019-05-16T09:06:26.127Z,1009.33
2019-05-16T09:09:41.034Z,1009.33
2019-05-16T09:12:27.901Z,1009.28
2019-05-16T09:15:27.411Z,1009.33
2019-05-16T09:18:28.918Z,1009.33
2019-05-16T09:21:27.606Z,1009.27
2019-05-16T09:24:27.237Z,1009.30
2019-05-16T09:27:27.336Z,1009.24
2019-05-16T09:30:27.479Z,1009.17
2019-05-16T09:33:26.993Z,1009.16
2019-05-16T09:36:28.055Z,1009.03
2019-05-16T09:39:27.755Z,1009.05
2019-05-16T09:42:32.778Z,1009.05
2019-05-16T09:45:27.230Z,1009.01
2019-05-16T09:48:28.054Z,1008.94
2019-05-16T09:51:27.180Z,1008.94
2019-05-16T09:54:27.338Z,1008.94
2019-05-16T09:57:27.778Z,1008.94
2019-05-16T10:00:26.962Z,1008.91
2019-05-16T10:03:27.102Z,1008.93
2019-05-16T10:06:27.587Z,1008.95
2019-05-16T10:09:40.288Z,1008.93
2019-05-16T10:12:26.404Z,1008.87
2019-05-16T10:15:26.956Z,1008.85
2019-05-16T10:18:27.655Z,1008.77
2019-05-16T10:21:27.163Z,1008.77
2019-05-16T10:24:26.890Z,1008.74
2019-05-16T10:27:26.480Z,1008.68
2019-05-16T10:30:26.960Z,1008.78
2019-05-16T10:33:27.536Z,1008.84
2019-05-16T10:36:27.938Z,1008.72
2019-05-16T10:39:26.782Z,1008.60
2019-05-16T10:42:28.940Z,1008.56
2019-05-16T10:45:27.158Z,1008.50
2019-05-16T10:48:26.990Z,1008.47
2019-05-16T10:51:26.923Z,1008.39
2019-05-16T10:54:27.404Z,1008.30
2019-05-16T10:57:29.392Z,1008.29
2019-05-16T11:00:57.235Z,1008.24
2019-05-16T11:03:27.680Z,1008.20
2019-05-16T11:06:28.836Z,1008.12
2019-05-16T11:09:24.793Z,1008.12
2019-05-16T11:12:43.195Z,1008.12
2019-05-16T11:15:27.801Z,1008.06
2019-05-16T11:18:26.907Z,1008.03
2019-05-16T11:21:26.721Z,1008.02
2019-05-16T11:24:28.989Z,1008.04
2019-05-16T11:27:24.582Z,1008.01
2019-05-16T11:30:24.657Z,1007.99
2019-05-16T11:33:24.527Z,1008.01
2019-05-16T11:36:26.645Z,1008.02
2019-05-16T11:39:24.491Z,1008.01
2019-05-16T11:42:24.414Z,1007.95
2019-05-16T11:45:24.389Z,1007.97
2019-05-16T11:48:25.338Z,1007.85
2019-05-16T11:51:26.610Z,1007.82
2019-05-16T11:54:26.464Z,1007.91
2019-05-16T11:57:24.271Z,1007.82
2019-05-16T12:00:24.272Z,1007.83
2019-05-16T12:03:24.184Z,1007.77
2019-05-16T12:06:26.625Z,1007.73
2019-05-16T12:09:24.133Z,1007.75
2019-05-16T12:12:24.109Z,1007.72
2019-05-16T12:15:24.060Z,1007.72
2019-05-16T12:18:26.384Z,1007.67
2019-05-16T12:21:24.002Z,1007.68
2019-05-16T12:24:33.038Z,1007.56
2019-05-16T12:27:31.800Z,1007.46
2019-05-16T12:30:24.904Z,1007.52
2019-05-16T12:33:23.889Z,1007.53
2019-05-16T12:36:26.328Z,1007.49
2019-05-16T12:39:26.673Z,1007.43
2019-05-16T12:42:23.786Z,1007.43
2019-05-16T12:45:23.729Z,1007.45
2019-05-16T12:48:23.719Z,1007.31
2019-05-16T12:51:23.663Z,1007.29
2019-05-16T12:54:23.665Z,1007.24
2019-05-16T12:57:27.696Z,1007.17
2019-05-16T13:00:24.601Z,1007.21
2019-05-16T13:03:23.542Z,1007.24
2019-05-16T13:06:23.524Z,1007.14
2019-05-16T13:09:23.490Z,1007.07
2019-05-16T13:12:23.459Z,1006.94
2019-05-16T13:15:23.439Z,1006.98
2019-05-16T13:18:23.400Z,1006.93
2019-05-16T13:21:23.353Z,1006.93
2019-05-16T13:24:23.307Z,1006.91
2019-05-16T13:27:23.503Z,1006.83
2019-05-16T13:30:23.264Z,1006.87
2019-05-16T13:33:23.260Z,1006.84
2019-05-16T13:36:23.219Z,1006.75
2019-05-16T13:39:23.150Z,1006.70
2019-05-16T13:42:23.143Z,1006.67
2019-05-16T13:45:23.086Z,1006.68
2019-05-16T13:48:23.070Z,1006.71
2019-05-16T13:51:23.049Z,1006.65
2019-05-16T13:54:22.985Z,1006.66
2019-05-16T13:57:22.962Z,1006.63
2019-05-16T14:00:22.925Z,1006.60
2019-05-16T14:03:22.905Z,1006.52
2019-05-16T14:06:22.858Z,1006.52
2019-05-16T14:09:22.836Z,1006.38
2019-05-16T14:12:22.812Z,1006.35
2019-05-16T14:15:22.750Z,1006.28
2019-05-16T14:18:22.731Z,1006.27
2019-05-16T14:21:22.692Z,1006.22
2019-05-16T14:24:22.672Z,1006.21
2019-05-16T14:27:22.615Z,1006.20
2019-05-16T14:30:22.612Z,1006.16
2019-05-16T14:33:22.551Z,1006.05
2019-05-16T14:36:22.535Z,1006.07
2019-05-16T14:39:22.489Z,1006.04
2019-05-16T14:42:22.494Z,1005.99
2019-05-16T14:45:22.452Z,1005.91
2019-05-16T14:48:22.394Z,1005.89
2019-05-16T14:51:22.379Z,1005.88
2019-05-16T14:54:22.335Z,1005.84
2019-05-16T14:57:22.289Z,1005.76
2019-05-16T15:00:22.275Z,1005.72
2019-05-16T15:03:22.226Z,1005.64
2019-05-16T15:06:22.215Z,1005.64
2019-05-16T15:09:22.160Z,1005.54
2019-05-16T15:12:22.146Z,1005.46
2019-05-16T15:15:24.758Z,1005.44
2019-05-16T15:18:23.080Z,1005.48
2019-05-16T15:21:22.067Z,1005.45
2019-05-16T15:24:21.989Z,1005.37
2019-05-16T15:27:21.988Z,1005.35
2019-05-16T15:30:21.921Z,1005.34
2019-05-16T15:33:21.911Z,1005.26
2019-05-16T15:36:21.865Z,1005.31
2019-05-16T15:39:21.853Z,1005.25
2019-05-16T15:42:27.768Z,1005.22
2019-05-16T15:45:38.130Z,1005.12
2019-05-16T15:48:22.745Z,1005.04
2019-05-16T15:51:21.687Z,1005.01
2019-05-16T15:54:21.694Z,1004.98
2019-05-16T15:57:21.639Z,1004.92
2019-05-16T16:00:21.592Z,1004.87
2019-05-16T16:03:21.578Z,1004.81
2019-05-16T16:06:21.529Z,1004.80
2019-05-16T16:09:21.515Z,1004.77
2019-05-16T16:12:21.457Z,1004.69
2019-05-16T16:15:21.459Z,1004.65
2019-05-16T16:18:22.067Z,1004.61
2019-05-16T16:21:21.363Z,1004.61
2019-05-16T16:24:21.348Z,1004.58
2019-05-16T16:27:21.294Z,1004.59
2019-05-16T16:30:21.283Z,1004.54
2019-05-16T16:33:26.284Z,1004.58
2019-05-16T16:36:22.228Z,1004.56
2019-05-16T16:39:21.177Z,1004.53
2019-05-16T16:42:21.146Z,1004.48
2019-05-16T16:45:21.112Z,1004.51
2019-05-16T16:48:21.071Z,1004.46
2019-05-16T16:51:21.059Z,1004.43
2019-05-16T16:54:21.009Z,1004.33
2019-05-16T16:57:21.013Z,1004.33
2019-05-16T17:00:20.938Z,1004.36
2019-05-16T17:03:20.934Z,1004.37
2019-05-16T17:06:20.876Z,1004.38
2019-05-16T17:09:20.864Z,1004.37
2019-05-16T17:12:20.814Z,1004.31
2019-05-16T17:15:20.814Z,1004.33
2019-05-16T17:18:20.746Z,1004.28
2019-05-16T17:21:20.737Z,1004.32
2019-05-16T17:24:20.718Z,1004.28
2019-05-16T17:27:20.687Z,1004.28
2019-05-16T17:30:20.626Z,1004.17
2019-05-16T17:33:20.598Z,1004.18
2019-05-16T17:36:20.562Z,1004.16
2019-05-16T17:39:20.541Z,1004.17
2019-05-16T17:42:20.492Z,1004.16
2019-05-16T17:45:20.475Z,1004.16
2019-05-16T17:48:20.446Z,1004.08
2019-05-16T17:51:20.396Z,1003.99
2019-05-16T17:54:20.375Z,1004.04
2019-05-16T17:57:20.338Z,1004.02
2019-05-16T18:00:25.022Z,1003.96
2019-05-16T18:03:21.265Z,1003.96
2019-05-16T18:06:20.251Z,1003.94
2019-05-16T18:09:20.212Z,1003.95
2019-05-16T18:12:20.193Z,1003.99
2019-05-16T18:15:20.148Z,1003.99
2019-05-16T18:18:20.108Z,1004.00
2019-05-16T18:21:20.098Z,1003.98
2019-05-16T18:24:20.043Z,1003.98
2019-05-16T18:27:20.037Z,1003.95
2019-05-16T18:30:19.978Z,1003.92
2019-05-16T18:33:19.980Z,1003.96
2019-05-16T18:36:19.921Z,1004.02
2019-05-16T18:39:19.915Z,1003.95
2019-05-16T18:42:19.880Z,1003.88
2019-05-16T18:45:19.816Z,1003.90
2019-05-16T18:48:19.820Z,1003.88
2019-05-16T18:51:19.754Z,1003.80
2019-05-16T18:54:19.748Z,1003.80
2019-05-16T18:57:19.687Z,1003.75
2019-05-16T19:00:19.684Z,1003.77
2019-05-16T19:03:19.625Z,1003.69
2019-05-16T19:06:19.624Z,1003.71
2019-05-16T19:09:19.582Z,1003.75
2019-05-16T19:12:19.531Z,1003.71
2019-05-16T19:15:19.510Z,1003.71
2019-05-16T19:18:19.463Z,1003.65
2019-05-16T19:21:19.449Z,1003.64
2019-05-16T19:24:19.422Z,1003.63
2019-05-16T19:27:19.364Z,1003.52
2019-05-16T19:30:19.364Z,1003.50
2019-05-16T19:33:19.324Z,1003.55
2019-05-16T19:36:19.292Z,1003.54
2019-05-16T19:39:19.240Z,1003.55
2019-05-16T19:42:19.226Z,1003.54
2019-05-16T19:45:19.182Z,1003.61
2019-05-16T19:48:19.160Z,1003.58
2019-05-16T19:51:19.139Z,1003.62
2019-05-16T19:54:19.082Z,1003.65
2019-05-16T19:57:19.077Z,1003.55
2019-05-16T20:00:19.051Z,1003.59
2019-05-16T20:03:19.012Z,1003.60
2019-05-16T20:06:18.964Z,1003.62
2019-05-16T20:09:18.937Z,1003.59
2019-05-16T20:12:18.898Z,1003.56
2019-05-16T20:15:18.887Z,1003.57
2019-05-16T20:18:18.847Z,1003.48
2019-05-16T20:21:18.823Z,1003.46
2019-05-16T20:24:18.764Z,1003.48
2019-05-16T20:27:19.477Z,1003.43
2019-05-16T20:30:18.730Z,1003.42
2019-05-16T20:33:18.671Z,1003.36
2019-05-16T20:36:18.667Z,1003.42
2019-05-16T20:39:18.627Z,1003.36
2019-05-16T20:42:18.585Z,1003.31
2019-05-16T20:45:18.550Z,1003.27
2019-05-16T20:48:18.833Z,1003.31
2019-05-16T20:51:20.274Z,1003.33
2019-05-16T20:54:18.448Z,1003.34
2019-05-16T20:57:18.437Z,1003.35
2019-05-16T21:00:18.391Z,1003.36
2019-05-16T21:03:18.396Z,1003.31
2019-05-16T21:06:18.322Z,1003.20
2019-05-16T21:09:18.305Z,1003.28
2019-05-16T21:12:18.279Z,1003.25
2019-05-16T21:15:18.225Z,1003.25
2019-05-16T21:18:18.205Z,1003.24
2019-05-16T21:21:19.388Z,1003.19
2019-05-16T21:24:18.140Z,1003.24
2019-05-16T21:27:19.119Z,1003.15
2019-05-16T21:30:19.176Z,1003.19
2019-05-16T21:33:18.664Z,1003.14
2019-05-16T21:36:19.095Z,1003.11
2019-05-16T21:39:17.982Z,1003.03
2019-05-16T21:42:17.939Z,1003.08
2019-05-16T21:45:28.271Z,1003.03
2019-05-16T21:48:19.407Z,1003.11
2019-05-16T21:51:19.642Z,1003.10
2019-05-16T21:54:17.831Z,1003.10
2019-05-16T21:57:19.854Z,1002.98
2019-05-16T22:00:17.780Z,1003.04
2019-05-16T22:03:17.737Z,1003.04
2019-05-16T22:06:17.717Z,1002.99
2019-05-16T22:09:17.693Z,1002.96
2019-05-16T22:12:17.631Z,1002.95
2019-05-16T22:15:17.609Z,1002.98
2019-05-16T22:18:17.594Z,1002.90
2019-05-16T22:21:17.558Z,1002.89
2019-05-16T22:24:17.496Z,1002.86
2019-05-16T22:27:17.485Z,1002.86
2019-05-16T22:30:17.471Z,1002.83
2019-05-16T22:33:17.873Z,1002.82
2019-05-16T22:36:17.484Z,1002.86
2019-05-16T22:39:17.456Z,1002.75
2019-05-16T22:42:17.767Z,1002.76
2019-05-16T22:45:17.697Z,1002.70
2019-05-16T22:48:17.509Z,1002.70
2019-05-16T22:51:17.213Z,1002.67
2019-05-16T22:54:17.341Z,1002.66
2019-05-16T22:57:17.749Z,1002.60
2019-05-16T23:00:17.142Z,1002.63
2019-05-16T23:03:17.507Z,1002.62
2019-05-16T23:06:17.091Z,1002.53
2019-05-16T23:09:17.075Z,1002.50
2019-05-16T23:12:17.468Z,1002.59
2019-05-16T23:15:17.223Z,1002.57
2019-05-16T23:18:17.296Z,1002.55
2019-05-16T23:21:17.132Z,1002.53
2019-05-16T23:24:17.347Z,1002.54
2019-05-16T23:27:16.868Z,1002.53
2019-05-16T23:30:16.838Z,1002.48
2019-05-16T23:33:16.782Z,1002.42
2019-05-16T23:36:17.483Z,1002.43
2019-05-16T23:39:16.731Z,1002.42
2019-05-16T23:42:16.676Z,1002.38
2019-05-16T23:45:17.288Z,1002.41
2019-05-16T23:48:16.636Z,1002.39
2019-05-16T23:51:17.011Z,1002.35
2019-05-16T23:54:17.230Z,1002.40
2019-05-16T23:57:16.515Z,1002.34
